Latest Weather Observations for Oakey

IDQ60901

Issued at 7:31 pm EST Tuesday 26 May 2015 (issued every 10 minutes, with the page automatically refreshed every 10 minutes)

About weather observations | Map of Brisbane area stations | Latest observations for Brisbane area | Other Formats
Station Details ID: 041359 Name: OAKEY AERO Lat: -27.40 Lon: 151.74 Height: 405.69 m
Data from the previous 72 hours. | See also: Recent months at Oakey
Date/Time
EST
Tmp

°C
App
Tmp
°C
Dew
Point
°C
Rel
Hum
%
Delta-T

°C
Wind Press
QNH
hPa
Press
MSL
hPa
Rain
since
9 am
mm
Dir
 
Spd
km/h
Gust
km/h
Spd
kts
Gust
kts
26/07:30pm 13.7 11.8 10.5 81 1.7 NE 11 13 6 7 1026.5 - 0.0
26/07:00pm 14.4 13.0 10.8 79 1.9 ENE 9 11 5 6 1026.6 - 0.0
26/06:30pm 14.8 13.4 11.0 78 2.1 ENE 9 11 5 6 1025.9 - 0.0
26/05:30pm 15.8 13.8 10.3 70 3.0 ENE 11 13 6 7 1026.1 - 0.0
26/05:00pm 17.0 14.7 10.4 65 3.6 ENE 13 15 7 8 1025.3 - 0.0
26/04:30pm 18.2 15.8 10.1 59 4.4 ENE 13 19 7 10 1025.1 - 0.0
26/04:00pm 18.8 15.9 9.8 56 4.9 ENE 15 19 8 10 1024.8 - 0.0
26/03:30pm 19.3 17.0 10.3 56 4.9 ENE 13 17 7 9 1024.9 - 0.0
26/03:00pm 19.2 15.9 9.7 54 5.1 ENE 17 20 9 11 1024.7 1024.1 0.0
26/02:30pm 19.5 17.9 8.2 48 6.0 SE 6 13 3 7 1024.9 - 0.0
26/02:00pm 19.7 18.5 8.1 47 6.1 SE 4 7 2 4 1025.3 - 0.0
26/01:30pm 19.6 17.7 8.9 50 5.7 E 9 13 5 7 1025.5 - 0.0
26/01:00pm 19.5 18.0 9.1 51 5.6 E 7 13 4 7 1026.4 - 0.0
26/12:30pm 19.7 18.3 8.7 49 5.9 ENE 6 11 3 6 1026.7 - 0.0
26/12:00pm 20.5 19.3 10.3 52 5.6 E 7 19 4 10 1027.2 1026.7 0.0
26/11:30am 19.8 18.8 11.0 57 4.9 ESE 7 17 4 9 1027.8 - 0.0
26/11:00am 18.6 17.1 10.7 60 4.3 E 9 13 5 7 1028.8 - 0.0
26/10:30am 18.3 16.5 10.7 61 4.2 ENE 11 19 6 10 1029.2 - 0.0
26/10:00am 18.3 15.9 11.4 64 3.8 ENE 15 20 8 11 1029.2 - 0.0
26/09:30am 17.0 15.6 12.3 74 2.6 ENE 11 17 6 9 1029.1 - 0.0
26/09:00am 13.7 12.7 11.0 84 1.4 SE 7 9 4 5 1029.2 1028.6 0.0
26/08:30am 12.3 10.9 10.9 91 0.7 ESE 9 9 5 5 1029.0 - 0.0
26/08:01am 11.1 10.0 10.5 96 0.3 ESE 7 9 4 5 1029.1 - 0.0
26/07:30am 9.3 7.8 9.2 99 0.1 E 7 9 4 5 1029.1 - 0.0
26/07:00am 6.6 4.0 6.2 97 0.2 SE 9 11 5 6 1029.1 - 0.0
26/06:33am 6.3 3.6 5.7 96 0.3 SSE 9 11 5 6 1028.8 - 0.0
26/06:30am 6.2 3.5 5.6 96 0.3 SSE 9 11 5 6 1028.8 - 0.0
26/06:12am 6.9 4.7 6.3 96 0.3 SE 7 7 4 4 1028.9 - 0.0
26/06:00am 7.2 5.3 6.6 96 0.3 SSE 6 7 3 4 1028.9 1028.3 0.0
26/05:30am 7.5 5.5 7.1 97 0.2 ESE 7 7 4 4 1028.5 - 0.0
26/05:00am 7.1 5.0 6.5 96 0.3 SE 7 9 4 5 1028.3 - 0.0
26/04:30am 8.2 6.0 7.8 97 0.2 SE 9 9 5 5 1028.2 - 0.0
26/04:00am 7.7 5.3 7.1 96 0.3 SE 9 11 5 6 1028.2 - 0.0
26/03:30am 7.5 5.3 6.4 93 0.5 E 7 7 4 4 1028.5 - 0.0
26/03:00am 7.9 5.9 7.3 96 0.3 ESE 7 9 4 5 1028.4 1027.9 0.0
26/02:33am 8.1 6.0 6.6 90 0.7 ENE 7 9 4 5 1028.5 - 0.0
26/02:30am 8.8 6.9 7.4 91 0.7 ENE 7 9 4 5 1028.5 - 0.0
26/02:21am 9.1 8.5 7.5 90 0.8 CALM 0 0 0 0 1028.7 - 0.0
26/02:00am 10.4 10.2 9.0 91 0.7 CALM 0 0 0 0 1028.9 - 0.0
26/01:30am 11.0 9.9 9.8 92 0.6 ENE 6 7 3 4 1028.7 - 0.0
26/01:00am 10.3 8.6 8.4 88 0.9 NE 7 9 4 5 1028.9 - 0.0
26/12:30am 11.2 10.0 9.5 89 0.9 NE 6 9 3 5 1029.2 - 0.0
26/12:00am 11.0 9.8 9.6 91 0.7 WNW 6 7 3 4 1029.1 1028.5 0.0
 
Date/Time
EST
Tmp

°C
App
Tmp
°C
Dew
Point
°C
Rel
Hum
%
Delta-T

°C
Wind Press
QNH
hPa
Press
MSL
hPa
Rain
since
9 am
mm
Dir
 
Spd
km/h
Gust
km/h
Spd
kts
Gust
kts
25/11:30pm 10.5 9.9 8.8 89 0.9 E 2 6 1 3 1029.2 - 0.0
25/11:00pm 10.7 8.8 9.0 89 0.9 ENE 9 11 5 6 1029.4 - 0.0
25/10:30pm 10.4 10.0 8.3 87 1.0 CALM 0 0 0 0 1029.8 - 0.0
25/10:00pm 10.7 9.6 8.5 86 1.1 ENE 4 6 2 3 1029.7 - 0.0
25/09:30pm 10.1 7.2 8.0 87 1.0 E 13 15 7 8 1029.8 - 0.0
25/09:00pm 11.4 8.7 9.0 85 1.2 ENE 13 15 7 8 1030.2 1029.7 0.0
25/08:30pm 11.5 9.8 8.4 81 1.6 ESE 7 9 4 5 1030.2 - 0.0
25/08:00pm 12.6 9.7 9.6 82 1.6 ENE 15 17 8 9 1029.8 - 0.0
25/07:30pm 11.4 8.9 8.1 80 1.6 ENE 11 13 6 7 1029.4 - 0.0
25/07:00pm 12.2 10.6 7.9 75 2.2 ENE 6 7 3 4 1029.3 - 0.0
25/06:30pm 12.6 10.8 7.9 73 2.4 ENE 7 9 4 5 1028.8 - 0.0
25/06:00pm 13.3 10.8 8.0 70 2.7 ENE 11 13 6 7 1028.4 1027.9 0.0
25/05:30pm 14.8 11.6 8.5 66 3.2 ENE 15 17 8 9 1028.3 - 0.0
25/05:00pm 17.1 14.2 8.3 56 4.6 ENE 13 17 7 9 1028.7 - 0.0
25/04:30pm 18.6 15.1 8.6 52 5.3 ENE 17 19 9 10 1028.3 - 0.0
25/04:00pm 19.3 15.8 8.9 51 5.6 ENE 17 19 9 10 1028.4 - 0.0
25/03:30pm 20.0 16.2 7.7 45 6.5 ENE 17 20 9 11 1028.2 - 0.0
25/03:00pm 19.4 15.7 7.8 47 6.0 ENE 17 20 9 11 1028.2 1027.7 0.0
25/02:30pm 20.5 16.9 8.5 46 6.4 ENE 17 24 9 13 1028.1 - 0.0
25/02:00pm 20.6 17.1 8.6 46 6.4 E 17 20 9 11 1028.2 - 0.0
25/01:30pm 20.7 17.0 9.3 48 6.2 NE 19 22 10 12 1028.2 - 0.0
25/01:00pm 19.5 15.4 8.8 50 5.7 ENE 20 26 11 14 1028.7 - 0.0
25/12:30pm 19.7 15.7 9.0 50 5.7 ENE 20 28 11 15 1029.4 - 0.0
25/12:00pm 19.8 16.1 10.2 54 5.2 ENE 20 30 11 16 1029.9 1029.4 0.0
25/11:30am 19.7 15.8 10.7 56 5.0 ESE 22 26 12 14 1030.6 - 0.0
25/11:00am 18.7 14.7 10.3 58 4.6 E 22 33 12 18 1030.8 - 0.0
25/10:30am 18.2 14.2 10.6 61 4.2 E 22 28 12 15 1031.5 - 0.0
25/10:00am 17.9 14.4 11.0 64 3.8 ENE 20 26 11 14 1031.8 - 0.0
25/09:30am 17.2 14.1 11.5 69 3.2 E 19 24 10 13 1031.9 - 0.0
25/09:00am 16.1 12.9 11.1 72 2.7 E 19 28 10 15 1031.6 1031.1 0.0
25/08:30am 14.1 12.6 10.5 79 1.9 ESE 9 11 5 6 1031.0 - 0.0
25/08:00am 12.5 13.2 12.2 98 0.2 CALM 0 6 0 3 1031.0 - 0.0
25/07:30am 8.8 8.4 8.4 97 0.2 CALM 0 0 0 0 1030.7 - 0.0
25/07:00am 6.6 4.0 6.0 96 0.3 ENE 9 9 5 5 1030.0 - 0.0
25/06:30am 6.1 3.7 5.4 95 0.3 NE 7 9 4 5 1030.1 - 0.0
25/06:22am 6.1 3.9 5.4 95 0.3 NNE 6 7 3 4 1030.1 - 0.0
25/06:00am 7.1 5.2 6.5 96 0.3 NNE 6 6 3 3 1030.0 1029.5 0.0
25/05:30am 6.4 5.0 5.5 94 0.4 SE 2 7 1 4 1029.8 - 0.0
25/05:00am 6.6 4.2 5.2 91 0.6 SE 7 11 4 6 1029.7 - 0.0
25/04:30am 8.2 5.4 7.0 92 0.6 SE 11 15 6 8 1029.7 - 0.0
25/04:00am 7.8 4.7 7.1 95 0.3 SSE 13 17 7 9 1029.7 - 0.0
25/03:30am 7.2 4.5 5.8 91 0.6 SSE 9 11 5 6 1029.9 - 0.0
25/03:00am 8.4 5.7 7.2 92 0.6 SE 11 13 6 7 1029.9 1029.4 0.0
25/02:30am 8.7 5.7 7.5 92 0.6 SSE 13 15 7 8 1030.2 - 0.0
25/02:00am 9.2 5.8 7.8 91 0.7 S 15 17 8 9 1030.3 - 0.0
25/01:30am 11.1 7.6 8.7 85 1.2 ENE 17 20 9 11 1030.3 - 0.0
25/01:00am 11.4 7.6 9.1 86 1.2 ENE 19 20 10 11 1030.1 - 0.0
25/12:30am 11.1 8.3 8.7 85 1.2 E 13 15 7 8 1030.2 - 0.0
25/12:00am 11.4 8.7 8.8 84 1.3 E 13 17 7 9 1030.2 1029.7 0.0
 
Date/Time
EST
Tmp

°C
App
Tmp
°C
Dew
Point
°C
Rel
Hum
%
Delta-T

°C
Wind Press
QNH
hPa
Press
MSL
hPa
Rain
since
9 am
mm
Dir
 
Spd
km/h
Gust
km/h
Spd
kts
Gust
kts
24/11:30pm 11.4 8.7 8.8 84 1.3 E 13 15 7 8 1030.3 - 0.0
24/11:00pm 12.1 9.1 9.1 82 1.5 ENE 15 19 8 10 1030.3 - 0.0
24/10:30pm 12.4 9.0 9.2 81 1.6 ENE 17 24 9 13 1030.2 - 0.0
24/10:00pm 11.2 8.0 8.6 84 1.3 ENE 15 17 8 9 1030.3 - 0.0
24/09:30pm 10.6 8.0 7.7 82 1.4 E 11 13 6 7 1030.7 - 0.0
24/09:00pm 11.4 9.3 8.1 80 1.6 E 9 11 5 6 1030.7 1030.2 0.0
24/08:30pm 10.3 7.3 7.9 85 1.2 ENE 13 15 7 8 1030.2 - 0.0
24/08:00pm 11.1 7.9 8.5 84 1.3 ENE 15 17 8 9 1030.1 - 0.0
24/07:30pm 11.9 8.7 8.4 79 1.8 ENE 15 17 8 9 1030.0 - 0.0
24/07:00pm 12.7 10.2 8.4 75 2.2 ENE 11 13 6 7 1029.8 - 0.0
24/06:30pm 13.2 10.3 8.3 72 2.5 ENE 13 15 7 8 1029.5 - 0.0
24/06:00pm 13.8 10.9 8.0 68 2.9 ENE 13 15 7 8 1029.1 1028.5 0.0
24/05:30pm 14.9 11.6 8.2 64 3.4 ENE 15 17 8 9 1028.9 - 0.0
24/05:00pm 16.4 13.1 7.9 57 4.4 E 15 19 8 10 1028.8 - 0.0
24/04:30pm 18.3 14.1 7.4 49 5.6 E 19 20 10 11 1028.5 - 0.0
24/04:00pm 19.1 15.3 7.5 47 6.0 ESE 17 20 9 11 1028.2 - 0.0
24/03:30pm 19.7 15.4 7.8 46 6.2 E 20 30 11 16 1027.7 - 0.0
24/03:00pm 19.8 16.0 7.5 45 6.4 ENE 17 22 9 12 1027.8 1027.3 0.0
24/02:30pm 20.3 15.8 8.6 47 6.3 ESE 22 32 12 17 1027.6 - 0.0
24/02:00pm 20.2 15.4 7.2 43 6.8 ENE 22 32 12 17 1027.5 - 0.0
24/01:30pm 20.1 15.9 8.1 46 6.3 ENE 20 30 11 16 1027.9 - 0.0
24/01:00pm 19.9 15.9 8.9 49 5.9 E 20 33 11 18 1028.0 - 0.0
24/12:30pm 19.6 15.0 8.3 48 6.0 ENE 22 30 12 16 1028.1 - 0.0
24/12:00pm 19.4 15.0 9.0 51 5.5 E 22 41 12 22 1028.4 1027.9 0.0
24/11:30am 18.8 12.6 7.9 49 5.7 ENE 30 37 16 20 1028.7 - 0.0
24/11:00am 18.5 13.5 7.9 50 5.5 E 24 33 13 18 1029.0 - 0.0
24/10:30am 18.0 12.2 8.0 52 5.2 ENE 28 37 15 20 1029.3 - 0.0
24/10:00am 17.5 12.7 8.9 57 4.5 E 24 35 13 19 1029.2 - 0.0
24/09:30am 14.8 13.0 9.4 70 2.8 SE 9 11 5 6 1029.6 - 0.0
24/09:00am 13.1 11.8 9.9 81 1.7 S 7 11 4 6 1029.7 1029.2 0.0
24/08:30am 10.2 8.6 8.1 87 1.0 S 6 7 3 4 1029.3 - 0.0
24/08:00am 8.9 7.2 7.7 92 0.6 NE 6 7 3 4 1029.3 - 0.0
24/07:30am 6.6 5.4 6.3 98 0.1 ENE 2 7 1 4 1029.2 - 0.0
24/07:00am 4.7 2.7 4.3 97 0.2 NNE 4 7 2 4 1029.1 - 0.0
24/06:30am 3.8 2.3 3.2 96 0.3 CALM 0 0 0 0 1028.7 - 0.0
24/06:00am 4.1 1.6 3.5 96 0.3 WSW 6 9 3 5 1028.8 1028.2 0.0
24/05:30am 4.1 2.7 3.5 96 0.3 CALM 0 0 0 0 1027.5 - 0.0
24/05:00am 4.2 1.7 3.6 96 0.3 SSE 6 9 3 5 1027.0 - 0.0
24/04:30am 4.8 2.4 4.2 96 0.3 SE 6 7 3 4 1026.9 - 0.0
24/04:00am 5.1 3.9 4.7 97 0.2 CALM 0 0 0 0 1026.8 - 0.0
24/03:30am 4.6 2.0 4.0 96 0.3 SE 7 9 4 5 1026.8 - 0.0
24/03:00am 4.9 2.5 4.2 95 0.3 NE 6 7 3 4 1026.7 1026.1 0.0
24/02:30am 5.4 2.9 4.7 95 0.3 NE 7 9 4 5 1027.2 - 0.0
24/02:00am 5.1 2.5 4.1 93 0.4 E 7 9 4 5 1026.9 - 0.0
24/01:30am 5.8 3.5 4.8 93 0.4 ESE 6 7 3 4 1027.1 - 0.0
24/01:00am 5.8 3.2 4.4 91 0.6 SE 7 7 4 4 1027.0 - 0.0
24/12:30am 6.7 4.5 5.2 90 0.7 SSE 6 7 3 4 1026.9 - 0.0
24/12:00am 7.7 7.0 7.1 96 0.3 CALM 0 0 0 0 1026.9 1026.3 0.0
 
Date/Time
EST
Tmp

°C
App
Tmp
°C
Dew
Point
°C
Rel
Hum
%
Delta-T

°C
Wind Press
QNH
hPa
Press
MSL
hPa
Rain
since
9 am
mm
Dir
 
Spd
km/h
Gust
km/h
Spd
kts
Gust
kts
23/11:30pm 6.8 5.1 5.7 93 0.5 NNE 4 7 2 4 1026.8 - 0.0
23/11:00pm 7.1 5.0 5.9 92 0.6 NE 6 7 3 4 1026.8 - 0.0
23/10:30pm 8.1 6.2 6.7 91 0.7 ESE 6 7 3 4 1026.9 - 0.0
23/10:00pm 7.8 5.2 5.9 88 0.9 SSE 9 11 5 6 1027.1 - 0.0
23/09:30pm 8.6 6.5 6.6 87 0.9 SSE 7 9 4 5 1027.0 - 0.0
23/09:00pm 8.9 6.8 6.7 86 1.0 SSE 7 9 4 5 1027.0 1026.4 0.0
23/08:30pm 9.1 6.6 6.5 84 1.2 SE 9 11 5 6 1026.8 - 0.0
23/08:00pm 10.2 6.8 7.6 84 1.3 S 15 19 8 10 1026.7 - 0.0

Latest Capital City Observations: Canberra | Sydney | Melbourne | Brisbane | Adelaide | Perth | Hobart | Darwin

Other Formats:

Comma delimited format used in spreadsheet applications
http://www.bom.gov.au/fwo/IDQ60901/IDQ60901.94552.axf

JavaScript Object Notation format (JSON) in row-major order
http://www.bom.gov.au/fwo/IDQ60901/IDQ60901.94552.json